Mansehra Weather



Mansehra's Current Weather

Temprature 8.62o overcast clouds

overcast clouds

Rain: 0 %

Min Temprature8.62o
Max Temprature8.62o
Humidity41
Wind Speed1.38 m/h
Sun Rise07:08:35
Sun Set17:30:43
Current Time: 27-Jan-2020 18:26:21
Lat/Lon: 34.33, 73.2




Mansehra's Geo Location



Mansehra's Weather Forecast

Time Overall Temp Min Temp Max Temp Humidity Wind Speed Rain
27-Jan-2020 (Mon)
20:00:00 overcast clouds 5.790 5.790 5.790 50 0.71 m/h 0 %
23:00:00 overcast clouds 5.050 5.050 5.050 50 1.47 m/h 0 %
28-Jan-2020 (Tue)
02:00:00 overcast clouds 4.340 4.340 4.340 49 1.13 m/h 0 %
05:00:00 overcast clouds 3.760 3.760 3.760 47 1.74 m/h 0 %
08:00:00 overcast clouds 3.370 3.370 3.370 46 2.19 m/h 0 %
11:00:00 overcast clouds 8.100 8.100 8.100 34 0.46 m/h 0 %
14:00:00 overcast clouds 9.200 9.200 9.200 35 2.28 m/h 0 %
17:00:00 overcast clouds 6.760 6.760 6.760 56 2.16 m/h 0 %
20:00:00 overcast clouds 5.040 5.040 5.040 64 1.19 m/h 0 %
23:00:00 overcast clouds 4.320 4.320 4.320 72 0.84 m/h 0 %
29-Jan-2020 (Wed)
02:00:00 overcast clouds 3.810 3.810 3.810 74 0.62 m/h 0 %
05:00:00 light snow 3.340 3.340 3.340 82 1.46 m/h 0 %
08:00:00 overcast clouds 3.200 3.200 3.200 85 0.99 m/h 0 %
11:00:00 light rain 4.240 4.240 4.240 82 1.42 m/h 75 %
14:00:00 light rain 2.990 2.990 2.990 92 1.92 m/h 281 %
17:00:00 light rain 3.470 3.470 3.470 91 1.91 m/h 200 %
20:00:00 light rain 2.070 2.070 2.070 87 2.19 m/h 13 %
23:00:00 overcast clouds 2.580 2.580 2.580 77 1.87 m/h 0 %
30-Jan-2020 (Thu)
02:00:00 scattered clouds 2.140 2.140 2.140 70 2.01 m/h 0 %
05:00:00 scattered clouds 1.600 1.600 1.600 65 2.42 m/h 0 %
08:00:00 clear sky 2.500 2.500 2.500 59 2.17 m/h 0 %
11:00:00 clear sky 8.520 8.520 8.520 41 0.85 m/h 0 %
14:00:00 clear sky 10.440 10.440 10.440 38 1.51 m/h 0 %
17:00:00 broken clouds 7.870 7.870 7.870 53 1.58 m/h 0 %
20:00:00 overcast clouds 4.400 4.400 4.400 66 0.49 m/h 0 %
23:00:00 overcast clouds 3.660 3.660 3.660 61 1.32 m/h 0 %
31-Jan-2020 (Fri)
02:00:00 overcast clouds 2.810 2.810 2.810 58 1.33 m/h 0 %
05:00:00 overcast clouds 3.260 3.260 3.260 53 1.57 m/h 0 %
08:00:00 overcast clouds 3.620 3.620 3.620 51 1.92 m/h 0 %
11:00:00 overcast clouds 8.550 8.550 8.550 37 0.25 m/h 0 %
14:00:00 overcast clouds 9.920 9.920 9.920 34 1.68 m/h 0 %
17:00:00 overcast clouds 7.770 7.770 7.770 48 1.59 m/h 0 %
20:00:00 overcast clouds 4.890 4.890 4.890 62 0.71 m/h 0 %
23:00:00 overcast clouds 3.800 3.800 3.800 51 1.56 m/h 0 %
01-Feb-2020 (Sat)
02:00:00 scattered clouds 2.300 2.300 2.300 45 2 m/h 0 %
05:00:00 few clouds 1.470 1.470 1.470 41 2.23 m/h 0 %
08:00:00 clear sky 2.410 2.410 2.410 39 2.43 m/h 0 %
11:00:00 clear sky 9.230 9.230 9.230 26 1.09 m/h 0 %
14:00:00 clear sky 11.250 11.250 11.250 24 1.31 m/h 0 %
17:00:00 clear sky 8.850 8.850 8.850 36 0.94 m/h 0 %

Famous Cities (61)